Alexandria, United Kingdom
Current Conditions -  °F | °C
As of 4:20 PM on Thursday 18 Dec 2014 (Local Time) from EGPF Reporting Station
Light Rain Light Rain  
Wind Chill: 39°   Ceiling: 1000
Heat Index: 45°   Visibility: 6mi
Dew Point: 43°   Wind: 12mph
Humidity: 93%   Direction: 260°W
Pressure: 29.41"   Gusts: NA
Location:  55.99°N, 4.59°W
Report Text: EGPF 181620Z AUTO 26010KT 9999 -RA BKN010 BKN037 07/06 Q0996 REDZ
Loading
Personal Weather Stations






























Interactive Weather Map New forecast layout! Learn more

10-Day Weather Forecast

Advertisements
Track Severe Weather on mobile